sensor_id;sensor_type;location;lat;lon;timestamp;pressure;altitude;pressure_sealevel;temperature;humidity
51928;BME280;37953;52.806;18.270;2024-03-08T00:00:05;101575.72;;;2.60;100.00
51928;BME280;37953;52.806;18.270;2024-03-08T00:03:03;101576.47;;;2.57;100.00
51928;BME280;37953;52.806;18.270;2024-03-08T00:05:30;101576.47;;;2.57;100.00
51928;BME280;37953;52.806;18.270;2024-03-08T00:07:57;101568.66;;;2.56;100.00
51928;BME280;37953;52.806;18.270;2024-03-08T00:10:23;101573.81;;;2.56;100.00
51928;BME280;37953;52.806;18.270;2024-03-08T00:12:52;101567.72;;;2.54;100.00
51928;BME280;37953;52.806;18.270;2024-03-08T00:15:19;101563.31;;;2.51;100.00
51928;BME280;37953;52.806;18.270;2024-03-08T00:17:45;101565.78;;;2.50;100.00
51928;BME280;37953;52.806;18.270;2024-03-08T00:20:12;101560.66;;;2.50;100.00
51928;BME280;37953;52.806;18.270;2024-03-08T00:22:38;101561.47;;;2.49;100.00
51928;BME280;37953;52.806;18.270;2024-03-08T00:25:05;101559.69;;;2.48;100.00
51928;BME280;37953;52.806;18.270;2024-03-08T00:27:34;101563.06;;;2.47;100.00
51928;BME280;37953;52.806;18.270;2024-03-08T00:30:00;101568.91;;;2.44;100.00
51928;BME280;37953;52.806;18.270;2024-03-08T00:32:26;101557.59;;;2.40;100.00
51928;BME280;37953;52.806;18.270;2024-03-08T00:34:55;101554.94;;;2.39;100.00
51928;BME280;37953;52.806;18.270;2024-03-08T00:37:21;101559.22;;;2.38;100.00
51928;BME280;37953;52.806;18.270;2024-03-08T00:39:51;101556.50;;;2.35;100.00
51928;BME280;37953;52.806;18.270;2024-03-08T00:42:17;101559.06;;;2.35;100.00
51928;BME280;37953;52.806;18.270;2024-03-08T00:44:44;101563.22;;;2.33;100.00
51928;BME280;37953;52.806;18.270;2024-03-08T00:47:10;101566.47;;;2.31;100.00
51928;BME280;37953;52.806;18.270;2024-03-08T00:49:41;101562.06;;;2.28;100.00
51928;BME280;37953;52.806;18.270;2024-03-08T00:52:11;101560.31;;;2.27;100.00
51928;BME280;37953;52.806;18.270;2024-03-08T00:54:38;101558.53;;;2.26;100.00
51928;BME280;37953;52.806;18.270;2024-03-08T00:57:04;101559.34;;;2.25;100.00
51928;BME280;37953;52.806;18.270;2024-03-08T00:59:30;101555.00;;;2.24;100.00
51928;BME280;37953;52.806;18.270;2024-03-08T01:02:05;101557.53;;;2.22;100.00
51928;BME280;37953;52.806;18.270;2024-03-08T01:04:31;101556.63;;;2.22;100.00
51928;BME280;37953;52.806;18.270;2024-03-08T01:07:07;101553.09;;;2.20;100.00
51928;BME280;37953;52.806;18.270;2024-03-08T01:09:33;101546.22;;;2.19;100.00
51928;BME280;37953;52.806;18.270;2024-03-08T01:12:14;101546.94;;;2.16;100.00
51928;BME280;37953;52.806;18.270;2024-03-08T01:14:40;101540.03;;;2.15;100.00
51928;BME280;37953;52.806;18.270;2024-03-08T01:17:06;101544.19;;;2.13;100.00
51928;BME280;37953;52.806;18.270;2024-03-08T01:19:35;101550.13;;;2.12;100.00
51928;BME280;37953;52.806;18.270;2024-03-08T01:22:01;101543.22;;;2.11;100.00
51928;BME280;37953;52.806;18.270;2024-03-08T01:24:28;101544.03;;;2.10;100.00
51928;BME280;37953;52.806;18.270;2024-03-08T01:26:54;101538.91;;;2.10;100.00
51928;BME280;37953;52.806;18.270;2024-03-08T01:29:20;101541.38;;;2.09;100.00
51928;BME280;37953;52.806;18.270;2024-03-08T01:31:46;101534.41;;;2.06;100.00
51928;BME280;37953;52.806;18.270;2024-03-08T01:34:12;101527.50;;;2.05;100.00
51928;BME280;37953;52.806;18.270;2024-03-08T01:36:38;101527.50;;;2.05;100.00
51928;BME280;37953;52.806;18.270;2024-03-08T01:39:04;101530.78;;;2.02;100.00
51928;BME280;37953;52.806;18.270;2024-03-08T01:41:33;101524.59;;;1.99;100.00
51928;BME280;37953;52.806;18.270;2024-03-08T01:44:01;101524.53;;;1.97;100.00
51928;BME280;37953;52.806;18.270;2024-03-08T01:46:27;101526.16;;;1.95;100.00
51928;BME280;37953;52.806;18.270;2024-03-08T01:48:54;101519.25;;;1.94;100.00
51928;BME280;37953;52.806;18.270;2024-03-08T01:51:20;101515.78;;;1.94;100.00
51928;BME280;37953;52.806;18.270;2024-03-08T01:53:47;101517.50;;;1.93;100.00
51928;BME280;37953;52.806;18.270;2024-03-08T01:56:13;101517.50;;;1.93;100.00
51928;BME280;37953;52.806;18.270;2024-03-08T01:58:42;101513.97;;;1.91;100.00
51928;BME280;37953;52.806;18.270;2024-03-08T02:01:12;101514.69;;;1.89;100.00
51928;BME280;37953;52.806;18.270;2024-03-08T02:03:42;101521.41;;;1.87;100.00
51928;BME280;37953;52.806;18.270;2024-03-08T02:06:16;101512.66;;;1.83;100.00
51928;BME280;37953;52.806;18.270;2024-03-08T02:08:43;101521.13;;;1.82;100.00
51928;BME280;37953;52.806;18.270;2024-03-08T02:11:12;101515.06;;;1.80;100.00
51928;BME280;37953;52.806;18.270;2024-03-08T02:13:39;101516.66;;;1.78;100.00
51928;BME280;37953;52.806;18.270;2024-03-08T02:16:05;101507.28;;;1.78;100.00
51928;BME280;37953;52.806;18.270;2024-03-08T02:18:34;101504.72;;;1.78;100.00
51928;BME280;37953;52.806;18.270;2024-03-08T02:21:05;101512.41;;;1.78;100.00
51928;BME280;37953;52.806;18.270;2024-03-08T02:23:32;101508.00;;;1.76;100.00
51928;BME280;37953;52.806;18.270;2024-03-08T02:25:58;101500.22;;;1.74;100.00
51928;BME280;37953;52.806;18.270;2024-03-08T02:28:25;101494.03;;;1.71;100.00
51928;BME280;37953;52.806;18.270;2024-03-08T02:30:51;101502.53;;;1.70;100.00
51928;BME280;37953;52.806;18.270;2024-03-08T02:33:26;101505.00;;;1.68;100.00
51928;BME280;37953;52.806;18.270;2024-03-08T02:35:52;101499.00;;;1.68;100.00
51928;BME280;37953;52.806;18.270;2024-03-08T02:38:19;101503.16;;;1.66;100.00
51928;BME280;37953;52.806;18.270;2024-03-08T02:40:46;101505.63;;;1.64;100.00
51928;BME280;37953;52.806;18.270;2024-03-08T02:43:12;101502.19;;;1.63;100.00
51928;BME280;37953;52.806;18.270;2024-03-08T02:45:42;101500.41;;;1.62;100.00
51928;BME280;37953;52.806;18.270;2024-03-08T02:48:08;101497.78;;;1.61;100.00
51928;BME280;37953;52.806;18.270;2024-03-08T02:50:34;101499.44;;;1.60;100.00
51928;BME280;37953;52.806;18.270;2024-03-08T02:53:03;101494.25;;;1.59;100.00
51928;BME280;37953;52.806;18.270;2024-03-08T02:55:29;101489.81;;;1.56;100.00
51928;BME280;37953;52.806;18.270;2024-03-08T02:57:56;101495.66;;;1.54;100.00
51928;BME280;37953;52.806;18.270;2024-03-08T03:00:22;101489.56;;;1.52;100.00
51928;BME280;37953;52.806;18.270;2024-03-08T03:02:52;101493.72;;;1.50;100.00
51928;BME280;37953;52.806;18.270;2024-03-08T03:05:19;101491.06;;;1.48;100.00
51928;BME280;37953;52.806;18.270;2024-03-08T03:07:46;101486.88;;;1.49;100.00
51928;BME280;37953;52.806;18.270;2024-03-08T03:10:12;101490.28;;;1.49;100.00
51928;BME280;37953;52.806;18.270;2024-03-08T03:12:38;101485.09;;;1.48;100.00
51928;BME280;37953;52.806;18.270;2024-03-08T03:15:04;101489.31;;;1.47;100.00
51928;BME280;37953;52.806;18.270;2024-03-08T03:17:31;101490.91;;;1.45;100.00
51928;BME280;37953;52.806;18.270;2024-03-08T03:19:56;101487.38;;;1.43;100.00
51928;BME280;37953;52.806;18.270;2024-03-08T03:22:23;101485.63;;;1.42;100.00
51928;BME280;37953;52.806;18.270;2024-03-08T03:24:48;101484.72;;;1.41;100.00
51928;BME280;37953;52.806;18.270;2024-03-08T03:27:17;101487.22;;;1.40;100.00
51928;BME280;37953;52.806;18.270;2024-03-08T03:29:43;101488.81;;;1.38;100.00
51928;BME280;37953;52.806;18.270;2024-03-08T03:32:13;101489.59;;;1.37;100.00
51928;BME280;37953;52.806;18.270;2024-03-08T03:34:39;101488.63;;;1.35;100.00
51928;BME280;37953;52.806;18.270;2024-03-08T03:37:06;101487.66;;;1.33;100.00
51928;BME280;37953;52.806;18.270;2024-03-08T03:39:38;101482.38;;;1.30;100.00
51928;BME280;37953;52.806;18.270;2024-03-08T03:42:19;101488.28;;;1.29;100.00
51928;BME280;37953;52.806;18.270;2024-03-08T03:44:45;101483.88;;;1.26;100.00
51928;BME280;37953;52.806;18.270;2024-03-08T03:47:13;101478.66;;;1.25;100.00
51928;BME280;37953;52.806;18.270;2024-03-08T03:49:40;101479.47;;;1.24;100.00
51928;BME280;37953;52.806;18.270;2024-03-08T03:52:06;101479.38;;;1.22;100.00
51928;BME280;37953;52.806;18.270;2024-03-08T03:54:32;101480.19;;;1.21;100.00
51928;BME280;37953;52.806;18.270;2024-03-08T03:56:59;101481.06;;;1.21;100.00
51928;BME280;37953;52.806;18.270;2024-03-08T03:59:29;101480.09;;;1.19;100.00
51928;BME280;37953;52.806;18.270;2024-03-08T04:01:57;101477.53;;;1.19;100.00
51928;BME280;37953;52.806;18.270;2024-03-08T04:04:23;101475.75;;;1.18;100.00
51928;BME280;37953;52.806;18.270;2024-03-08T04:06:50;101474.00;;;1.17;100.00
51928;BME280;37953;52.806;18.270;2024-03-08T04:09:16;101473.13;;;1.17;100.00
51928;BME280;37953;52.806;18.270;2024-03-08T04:11:55;101477.34;;;1.16;100.00
51928;BME280;37953;52.806;18.270;2024-03-08T04:14:23;101475.59;;;1.15;100.00
51928;BME280;37953;52.806;18.270;2024-03-08T04:16:48;101472.94;;;1.14;100.00
51928;BME280;37953;52.806;18.270;2024-03-08T04:19:14;101469.50;;;1.13;100.00
51928;BME280;37953;52.806;18.270;2024-03-08T04:21:40;101472.69;;;1.09;100.00
51928;BME280;37953;52.806;18.270;2024-03-08T04:24:08;101470.13;;;1.09;100.00
51928;BME280;37953;52.806;18.270;2024-03-08T04:26:34;101475.09;;;1.06;100.00
51928;BME280;37953;52.806;18.270;2024-03-08T04:29:00;101471.56;;;1.04;100.00
51928;BME280;37953;52.806;18.270;2024-03-08T04:31:26;101476.56;;;1.02;100.00
51928;BME280;37953;52.806;18.270;2024-03-08T04:33:52;101473.03;;;1.00;100.00
51928;BME280;37953;52.806;18.270;2024-03-08T04:36:18;101473.81;;;0.99;100.00
51928;BME280;37953;52.806;18.270;2024-03-08T04:38:45;101472.88;;;0.97;100.00
51928;BME280;37953;52.806;18.270;2024-03-08T04:41:13;101469.34;;;0.95;100.00
51928;BME280;37953;52.806;18.270;2024-03-08T04:43:40;101468.44;;;0.95;100.00
51928;BME280;37953;52.806;18.270;2024-03-08T04:46:06;101466.69;;;0.94;100.00
51928;BME280;37953;52.806;18.270;2024-03-08T04:48:32;101463.31;;;0.95;100.00
51928;BME280;37953;52.806;18.270;2024-03-08T04:50:58;101464.13;;;0.94;100.00
51928;BME280;37953;52.806;18.270;2024-03-08T04:53:24;101461.38;;;0.91;100.00
51928;BME280;37953;52.806;18.270;2024-03-08T04:55:50;101463.06;;;0.90;100.00
51928;BME280;37953;52.806;18.270;2024-03-08T04:58:16;101471.56;;;0.89;100.00
51928;BME280;37953;52.806;18.270;2024-03-08T05:00:42;101461.22;;;0.88;100.00
51928;BME280;37953;52.806;18.270;2024-03-08T05:03:08;101457.78;;;0.87;100.00
51928;BME280;37953;52.806;18.270;2024-03-08T05:05:34;101465.47;;;0.87;100.00
51928;BME280;37953;52.806;18.270;2024-03-08T05:08:00;101460.34;;;0.87;100.00
51928;BME280;37953;52.806;18.270;2024-03-08T05:10:27;101462.91;;;0.87;100.00
51928;BME280;37953;52.806;18.270;2024-03-08T05:12:53;101468.78;;;0.86;100.00
51928;BME280;37953;52.806;18.270;2024-03-08T05:15:18;101466.13;;;0.85;100.00
51928;BME280;37953;52.806;18.270;2024-03-08T05:17:46;101470.38;;;0.84;100.00
51928;BME280;37953;52.806;18.270;2024-03-08T05:20:12;101467.81;;;0.84;100.00
51928;BME280;37953;52.806;18.270;2024-03-08T05:22:39;101462.72;;;0.84;100.00
51928;BME280;37953;52.806;18.270;2024-03-08T05:25:06;101462.63;;;0.82;100.00
51928;BME280;37953;52.806;18.270;2024-03-08T05:27:34;101468.53;;;0.81;100.00
51928;BME280;37953;52.806;18.270;2024-03-08T05:30:00;101467.66;;;0.81;100.00
51928;BME280;37953;52.806;18.270;2024-03-08T05:32:26;101463.25;;;0.78;100.00
51928;BME280;37953;52.806;18.270;2024-03-08T05:34:52;101463.25;;;0.78;100.00
51928;BME280;37953;52.806;18.270;2024-03-08T05:37:18;101465.81;;;0.78;100.00
51928;BME280;37953;52.806;18.270;2024-03-08T05:39:46;101469.16;;;0.77;100.00
51928;BME280;37953;52.806;18.270;2024-03-08T05:42:15;101467.47;;;0.78;100.00
51928;BME280;37953;52.806;18.270;2024-03-08T05:44:41;101465.72;;;0.77;100.00
51928;BME280;37953;52.806;18.270;2024-03-08T05:47:07;101459.72;;;0.76;100.00
51928;BME280;37953;52.806;18.270;2024-03-08T05:49:33;101461.47;;;0.77;100.00
51928;BME280;37953;52.806;18.270;2024-03-08T05:52:00;101458.03;;;0.77;100.00
51928;BME280;37953;52.806;18.270;2024-03-08T05:54:25;101454.69;;;0.78;100.00
51928;BME280;37953;52.806;18.270;2024-03-08T05:56:52;101458.16;;;0.78;100.00
51928;BME280;37953;52.806;18.270;2024-03-08T05:59:19;101457.34;;;0.79;100.00
51928;BME280;37953;52.806;18.270;2024-03-08T06:01:46;101455.59;;;0.78;100.00
51928;BME280;37953;52.806;18.270;2024-03-08T06:04:12;101462.44;;;0.79;100.00
51928;BME280;37953;52.806;18.270;2024-03-08T06:06:39;101460.78;;;0.80;100.00
51928;BME280;37953;52.806;18.270;2024-03-08T06:09:05;101460.00;;;0.81;100.00
51928;BME280;37953;52.806;18.270;2024-03-08T06:11:41;101460.06;;;0.82;100.00
51928;BME280;37953;52.806;18.270;2024-03-08T06:14:08;101458.56;;;0.86;100.00
51928;BME280;37953;52.806;18.270;2024-03-08T06:16:34;101460.72;;;0.93;100.00
51928;BME280;37953;52.806;18.270;2024-03-08T06:19:01;101456.72;;;0.98;100.00
51928;BME280;37953;52.806;18.270;2024-03-08T06:21:28;101460.50;;;1.05;100.00
51928;BME280;37953;52.806;18.270;2024-03-08T06:24:03;101464.38;;;1.13;100.00
51928;BME280;37953;52.806;18.270;2024-03-08T06:26:30;101460.34;;;1.17;100.00
51928;BME280;37953;52.806;18.270;2024-03-08T06:28:56;101459.72;;;1.21;100.00
51928;BME280;37953;52.806;18.270;2024-03-08T06:31:22;101464.91;;;1.22;100.00
51928;BME280;37953;52.806;18.270;2024-03-08T06:33:51;101462.44;;;1.24;100.00
51928;BME280;37953;52.806;18.270;2024-03-08T06:36:20;101463.31;;;1.25;100.00
51928;BME280;37953;52.806;18.270;2024-03-08T06:38:47;101461.72;;;1.27;100.00
51928;BME280;37953;52.806;18.270;2024-03-08T06:41:14;101460.94;;;1.28;100.00
51928;BME280;37953;52.806;18.270;2024-03-08T06:43:46;101457.56;;;1.29;100.00
51928;BME280;37953;52.806;18.270;2024-03-08T06:46:17;101461.09;;;1.31;100.00
51928;BME280;37953;52.806;18.270;2024-03-08T06:48:46;101459.50;;;1.33;100.00
51928;BME280;37953;52.806;18.270;2024-03-08T06:51:12;101461.28;;;1.34;100.00
51928;BME280;37953;52.806;18.270;2024-03-08T06:53:38;101459.69;;;1.36;100.00
51928;BME280;37953;52.806;18.270;2024-03-08T06:56:06;101459.84;;;1.39;100.00
51928;BME280;37953;52.806;18.270;2024-03-08T06:58:35;101458.25;;;1.41;100.00
51928;BME280;37953;52.806;18.270;2024-03-08T07:01:02;101457.53;;;1.43;100.00
51928;BME280;37953;52.806;18.270;2024-03-08T07:03:29;101461.97;;;1.46;100.00
51928;BME280;37953;52.806;18.270;2024-03-08T07:06:05;101457.00;;;1.49;100.00
51928;BME280;37953;52.806;18.270;2024-03-08T07:08:33;101462.28;;;1.52;100.00
51928;BME280;37953;52.806;18.270;2024-03-08T07:11:04;101457.34;;;1.55;100.00
51928;BME280;37953;52.806;18.270;2024-03-08T07:13:34;101453.28;;;1.59;100.00
51928;BME280;37953;52.806;18.270;2024-03-08T07:16:00;101456.88;;;1.62;100.00
51928;BME280;37953;52.806;18.270;2024-03-08T07:18:26;101459.69;;;1.67;100.00
51928;BME280;37953;52.806;18.270;2024-03-08T07:20:55;101454.75;;;1.70;100.00
51928;BME280;37953;52.806;18.270;2024-03-08T07:23:22;101458.44;;;1.75;100.00
51928;BME280;37953;52.806;18.270;2024-03-08T07:26:02;101457.78;;;1.79;100.00
51928;BME280;37953;52.806;18.270;2024-03-08T07:28:28;101460.53;;;1.82;100.00
51928;BME280;37953;52.806;18.270;2024-03-08T07:30:57;101455.56;;;1.86;100.00
51928;BME280;37953;52.806;18.270;2024-03-08T07:33:45;101459.28;;;1.91;100.00
51928;BME280;37953;52.806;18.270;2024-03-08T07:36:12;101450.13;;;1.96;100.00
51928;BME280;37953;52.806;18.270;2024-03-08T07:38:37;101443.50;;;1.99;100.00
51928;BME280;37953;52.806;18.270;2024-03-08T07:41:03;101448.97;;;2.06;100.00
51928;BME280;37953;52.806;18.270;2024-03-08T07:43:29;101450.94;;;2.11;100.00
51928;BME280;37953;52.806;18.270;2024-03-08T07:45:55;101448.63;;;2.16;100.00
51928;BME280;37953;52.806;18.270;2024-03-08T07:48:21;101448.94;;;2.22;100.00
51928;BME280;37953;52.806;18.270;2024-03-08T07:50:48;101441.56;;;2.28;100.00
51928;BME280;37953;52.806;18.270;2024-03-08T07:53:15;101442.72;;;2.33;100.00
51928;BME280;37953;52.806;18.270;2024-03-08T07:55:41;101445.59;;;2.39;100.00
51928;BME280;37953;52.806;18.270;2024-03-08T07:58:08;101444.13;;;2.44;100.00
51928;BME280;37953;52.806;18.270;2024-03-08T08:00:37;101447.88;;;2.51;100.00
51928;BME280;37953;52.806;18.270;2024-03-08T08:03:03;101444.75;;;2.57;100.00
51928;BME280;37953;52.806;18.270;2024-03-08T08:05:30;101445.88;;;2.62;100.00
51928;BME280;37953;52.806;18.270;2024-03-08T08:08:01;101443.59;;;2.68;100.00
51928;BME280;37953;52.806;18.270;2024-03-08T08:10:29;101444.75;;;2.73;100.00
51928;BME280;37953;52.806;18.270;2024-03-08T08:12:54;101444.16;;;2.79;100.00
51928;BME280;37953;52.806;18.270;2024-03-08T08:15:23;101439.22;;;2.83;100.00
51928;BME280;37953;52.806;18.270;2024-03-08T08:17:49;101436.03;;;2.88;100.00
51928;BME280;37953;52.806;18.270;2024-03-08T08:20:15;101442.38;;;2.94;100.00
51928;BME280;37953;52.806;18.270;2024-03-08T08:22:54;101433.19;;;2.99;100.00
51928;BME280;37953;52.806;18.270;2024-03-08T08:25:21;101434.38;;;3.06;100.00
51928;BME280;37953;52.806;18.270;2024-03-08T08:27:49;101436.41;;;3.13;100.00
51928;BME280;37953;52.806;18.270;2024-03-08T08:30:15;101433.28;;;3.19;100.00
51928;BME280;37953;52.806;18.270;2024-03-08T08:32:41;101425.00;;;3.24;100.00
51928;BME280;37953;52.806;18.270;2024-03-08T08:35:08;101426.91;;;3.29;100.00
51928;BME280;37953;52.806;18.270;2024-03-08T08:37:44;101430.56;;;3.34;100.00
51928;BME280;37953;52.806;18.270;2024-03-08T08:40:11;101427.31;;;3.38;100.00
51928;BME280;37953;52.806;18.270;2024-03-08T08:42:43;101421.53;;;3.42;100.00
51928;BME280;37953;52.806;18.270;2024-03-08T08:45:09;101424.31;;;3.46;100.00
51928;BME280;37953;52.806;18.270;2024-03-08T08:47:36;101420.28;;;3.52;100.00
51928;BME280;37953;52.806;18.270;2024-03-08T08:50:02;101420.56;;;3.58;100.00
51928;BME280;37953;52.806;18.270;2024-03-08T08:52:32;101413.94;;;3.63;100.00
51928;BME280;37953;52.806;18.270;2024-03-08T08:54:59;101410.78;;;3.69;100.00
51928;BME280;37953;52.806;18.270;2024-03-08T08:57:25;101416.13;;;3.73;100.00
51928;BME280;37953;52.806;18.270;2024-03-08T08:59:53;101419.78;;;3.78;100.00
51928;BME280;37953;52.806;18.270;2024-03-08T09:02:19;101420.88;;;3.83;100.00
51928;BME280;37953;52.806;18.270;2024-03-08T09:04:55;101415.94;;;3.88;100.00
51928;BME280;37953;52.806;18.270;2024-03-08T09:07:22;101419.59;;;3.93;100.00
51928;BME280;37953;52.806;18.270;2024-03-08T09:09:52;101409.44;;;3.96;100.00
51928;BME280;37953;52.806;18.270;2024-03-08T09:12:26;101409.56;;;3.99;100.00
51928;BME280;37953;52.806;18.270;2024-03-08T09:14:53;101400.41;;;4.04;100.00
51928;BME280;37953;52.806;18.270;2024-03-08T09:17:18;101402.34;;;4.10;100.00
51928;BME280;37953;52.806;18.270;2024-03-08T09:19:46;101412.03;;;4.16;100.00
51928;BME280;37953;52.806;18.270;2024-03-08T09:22:13;101410.53;;;4.21;100.00
51928;BME280;37953;52.806;18.270;2024-03-08T09:24:43;101401.25;;;4.24;100.00
51928;BME280;37953;52.806;18.270;2024-03-08T09:27:11;101405.66;;;4.27;100.00
51928;BME280;37953;52.806;18.270;2024-03-08T09:29:38;101402.38;;;4.31;100.00
51928;BME280;37953;52.806;18.270;2024-03-08T09:32:03;101404.34;;;4.37;100.00
51928;BME280;37953;52.806;18.270;2024-03-08T09:34:30;101398.53;;;4.41;100.00
51928;BME280;37953;52.806;18.270;2024-03-08T09:36:56;101397.84;;;4.45;100.00
51928;BME280;37953;52.806;18.270;2024-03-08T09:39:23;101404.88;;;4.49;100.00
51928;BME280;37953;52.806;18.270;2024-03-08T09:41:49;101402.50;;;4.54;100.00
51928;BME280;37953;52.806;18.270;2024-03-08T09:44:15;101398.50;;;4.60;100.00
51928;BME280;37953;52.806;18.270;2024-03-08T09:46:42;101396.19;;;4.66;100.00
51928;BME280;37953;52.806;18.270;2024-03-08T09:49:08;101398.94;;;4.71;100.00
51928;BME280;37953;52.806;18.270;2024-03-08T09:51:34;101394.81;;;4.75;100.00
51928;BME280;37953;52.806;18.270;2024-03-08T09:54:01;101392.34;;;4.78;100.00
51928;BME280;37953;52.806;18.270;2024-03-08T09:56:32;101396.00;;;4.83;100.00
51928;BME280;37953;52.806;18.270;2024-03-08T09:58:59;101388.38;;;4.86;98.34
51928;BME280;37953;52.806;18.270;2024-03-08T10:01:33;101389.47;;;4.91;97.60
51928;BME280;37953;52.806;18.270;2024-03-08T10:03:59;101381.94;;;4.96;96.23
51928;BME280;37953;52.806;18.270;2024-03-08T10:06:37;101388.13;;;5.01;94.28
51928;BME280;37953;52.806;18.270;2024-03-08T10:09:03;101386.63;;;5.06;93.29
51928;BME280;37953;52.806;18.270;2024-03-08T10:11:31;101385.97;;;5.12;93.82
51928;BME280;37953;52.806;18.270;2024-03-08T10:13:57;101384.47;;;5.17;92.76
51928;BME280;37953;52.806;18.270;2024-03-08T10:16:23;101384.66;;;5.21;92.97
51928;BME280;37953;52.806;18.270;2024-03-08T10:18:50;101379.69;;;5.26;92.02
51928;BME280;37953;52.806;18.270;2024-03-08T10:21:16;101381.56;;;5.30;92.01
51928;BME280;37953;52.806;18.270;2024-03-08T10:23:43;101380.03;;;5.35;92.35
51928;BME280;37953;52.806;18.270;2024-03-08T10:26:09;101377.66;;;5.40;92.31
51928;BME280;37953;52.806;18.270;2024-03-08T10:28:41;101371.75;;;5.44;91.02
51928;BME280;37953;52.806;18.270;2024-03-08T10:31:17;101372.84;;;5.49;90.25
51928;BME280;37953;52.806;18.270;2024-03-08T10:33:43;101375.56;;;5.54;89.50
51928;BME280;37953;52.806;18.270;2024-03-08T10:36:13;101370.59;;;5.58;88.57
51928;BME280;37953;52.806;18.270;2024-03-08T10:38:44;101369.03;;;5.62;87.40
51928;BME280;37953;52.806;18.270;2024-03-08T10:41:13;101367.47;;;5.67;88.25
51928;BME280;37953;52.806;18.270;2024-03-08T10:46:16;101371.34;;;5.78;89.13
51928;BME280;37953;52.806;18.270;2024-03-08T10:48:58;101362.00;;;5.82;89.00
51928;BME280;37953;52.806;18.270;2024-03-08T10:51:29;101358.72;;;5.86;89.33
51928;BME280;37953;52.806;18.270;2024-03-08T10:53:55;101364.00;;;5.89;88.70
51928;BME280;37953;52.806;18.270;2024-03-08T10:56:22;101357.19;;;5.91;87.48
51928;BME280;37953;52.806;18.270;2024-03-08T10:58:49;101361.59;;;5.94;87.97
51928;BME280;37953;52.806;18.270;2024-03-08T11:01:15;101361.72;;;5.97;87.88
51928;BME280;37953;52.806;18.270;2024-03-08T11:06:13;101346.53;;;6.04;88.46
51928;BME280;37953;52.806;18.270;2024-03-08T11:08:40;101346.69;;;6.09;88.31
51928;BME280;37953;52.806;18.270;2024-03-08T11:11:23;101345.97;;;6.13;87.59
51928;BME280;37953;52.806;18.270;2024-03-08T11:13:53;101344.38;;;6.17;86.14
51928;BME280;37953;52.806;18.270;2024-03-08T11:18:54;101340.31;;;6.23;86.52
51928;BME280;37953;52.806;18.270;2024-03-08T11:21:20;101337.88;;;6.28;86.66
51928;BME280;37953;52.806;18.270;2024-03-08T11:24:09;101332.84;;;6.32;86.79
51928;BME280;37953;52.806;18.270;2024-03-08T11:26:37;101327.03;;;6.38;87.71
51928;BME280;37953;52.806;18.270;2024-03-08T11:34:41;101318.06;;;6.52;86.10
51928;BME280;37953;52.806;18.270;2024-03-08T11:37:13;101315.63;;;6.57;85.53
51928;BME280;37953;52.806;18.270;2024-03-08T11:39:47;101310.53;;;6.60;85.16
51928;BME280;37953;52.806;18.270;2024-03-08T11:42:17;101310.72;;;6.65;85.57
51928;BME280;37953;52.806;18.270;2024-03-08T11:44:43;101308.28;;;6.69;87.11
51928;BME280;37953;52.806;18.270;2024-03-08T11:47:10;101307.50;;;6.72;85.90
51928;BME280;37953;52.806;18.270;2024-03-08T11:49:37;101310.13;;;6.73;85.06
51928;BME280;37953;52.806;18.270;2024-03-08T11:52:04;101297.25;;;6.75;85.84
51928;BME280;37953;52.806;18.270;2024-03-08T11:54:30;101302.41;;;6.75;84.35
51928;BME280;37953;52.806;18.270;2024-03-08T11:56:56;101291.28;;;6.76;86.04
51928;BME280;37953;52.806;18.270;2024-03-08T11:59:27;101282.72;;;6.79;86.01
51928;BME280;37953;52.806;18.270;2024-03-08T12:02:02;101282.00;;;6.83;86.83
51928;BME280;37953;52.806;18.270;2024-03-08T12:04:29;101275.28;;;6.88;88.02
51928;BME280;37953;52.806;18.270;2024-03-08T12:06:57;101283.19;;;6.92;87.98
51928;BME280;37953;52.806;18.270;2024-03-08T12:09:25;101272.09;;;6.97;86.86
51928;BME280;37953;52.806;18.270;2024-03-08T12:11:51;101279.06;;;6.99;86.47
51928;BME280;37953;52.806;18.270;2024-03-08T12:14:17;101274.03;;;7.04;87.00
51928;BME280;37953;52.806;18.270;2024-03-08T12:16:44;101276.69;;;7.07;87.26
51928;BME280;37953;52.806;18.270;2024-03-08T12:19:10;101274.28;;;7.11;86.93
51928;BME280;37953;52.806;18.270;2024-03-08T12:21:36;101268.38;;;7.16;86.07
51928;BME280;37953;52.806;18.270;2024-03-08T12:24:03;101264.13;;;7.18;85.03
51928;BME280;37953;52.806;18.270;2024-03-08T12:26:30;101261.56;;;7.19;85.04
51928;BME280;37953;52.806;18.270;2024-03-08T12:29:40;101262.59;;;7.24;85.78
51928;BME280;37953;52.806;18.270;2024-03-08T12:31:54;101251.50;;;7.28;86.01
51928;BME280;37953;52.806;18.270;2024-03-08T12:34:21;101249.91;;;7.33;86.56
51928;BME280;37953;52.806;18.270;2024-03-08T12:36:47;101247.47;;;7.38;85.90
51928;BME280;37953;52.806;18.270;2024-03-08T12:39:17;101241.53;;;7.42;85.43
51928;BME280;37953;52.806;18.270;2024-03-08T12:41:54;101239.97;;;7.47;84.51
51928;BME280;37953;52.806;18.270;2024-03-08T12:44:20;101237.47;;;7.50;82.99
51928;BME280;37953;52.806;18.270;2024-03-08T12:46:50;101237.59;;;7.55;83.42
51928;BME280;37953;52.806;18.270;2024-03-08T12:49:17;101235.09;;;7.58;83.18
51928;BME280;37953;52.806;18.270;2024-03-08T12:51:43;101225.69;;;7.62;82.91
51928;BME280;37953;52.806;18.270;2024-03-08T12:54:14;101229.25;;;7.65;82.34
51928;BME280;37953;52.806;18.270;2024-03-08T12:56:40;101227.63;;;7.69;81.95
51928;BME280;37953;52.806;18.270;2024-03-08T12:59:07;101232.88;;;7.72;81.63